Swan River — VRMD2 — position and weather

sailwx.info

Track history (hours):
 
Tides and Currents Weather Stations Pressure Air Temp Water Temp Dewpoint Dewpoint Depression Visibility Wind Speed Wind Dir Waves Ship Positions

Swan River

Last reported at 2018-May-17 12:40 UTC. Time now 2018-May-22 19:53 UTC.
Position N 36°32' W 029°21'.

Length 190 m; draft 11.2 m.

Type: Cargo ship. MMSI: 477220600.

Date/timePositionNaut miles runAvg speedWind from/ knotsBaromVisibWave heightAir tempDewpointWater temp
2018-May-17 12:40N 36°32' W 029°21'1411.8
2018-May-17 11:30N 36°33' W 029°04'3011.8
2018-May-17 08:56N 36°35' W 028°27'2011.8
2018-May-17 07:16N 36°37' W 028°02'511.6
2018-May-17 06:49N 36°37' W 027°56'411.8
2018-May-17 06:26N 36°37' W 027°50'511.8
2018-May-17 06:00N 36°38' W 027°44'612.2
2018-May-17 05:30N 36°38' W 027°36'711.8
2018-May-17 04:55N 36°39' W 027°28'511.8
2018-May-17 04:30N 36°39' W 027°21'611.7
2018-May-17 04:00N 36°39' W 027°14'611.5
2018-May-17 03:28N 36°40' W 027°07'611.6
2018-May-17 02:58N 36°40' W 026°59'511.6
2018-May-17 02:30N 36°41' W 026°53'611.7
2018-May-17 02:00N 36°41' W 026°45'911.8
2018-May-17 01:14N 36°42' W 026°34'311.6
2018-May-17 00:59N 36°42' W 026°31'611.9
2018-May-17 00:28N 36°42' W 026°23'511.5
2018-May-17 00:00N 36°42' W 026°16'611.6
2018-May-16 23:30N 36°42' W 026°09'611.8
2018-May-16 23:00N 36°41' W 026°02'611.7
2018-May-16 22:30N 36°41' W 025°55'611.6
2018-May-16 22:00N 36°41' W 025°47'611.6
2018-May-16 21:30N 36°41' W 025°40'611.7
2018-May-16 21:00N 36°41' W 025°33'611.9
2018-May-16 20:30N 36°40' W 025°25'612.2
2018-May-16 20:00N 36°40' W 025°18'612.1
2018-May-16 19:30N 36°40' W 025°10'612.0
2018-May-16 19:00N 36°40' W 025°03'612.0
2018-May-16 18:30N 36°39' W 024°55'611.9
2018-May-16 18:00N 36°39' W 024°48'612.0
2018-May-16 17:30N 36°39' W 024°40'611.8
2018-May-16 17:00N 36°39' W 024°33'612.0
2018-May-16 16:30N 36°38' W 024°26'612.0
2018-May-16 16:00N 36°38' W 024°18'612.0
2018-May-16 15:30N 36°38' W 024°11'612.1
2018-May-16 15:00N 36°38' W 024°03'611.9
2018-May-16 14:30N 36°37' W 023°56'612.0
2018-May-16 14:00N 36°37' W 023°48'611.8
2018-May-16 13:30N 36°37' W 023°41'711.8
2018-May-16 12:56N 36°37' W 023°33'811.9
2018-May-16 12:17N 36°36' W 023°23'5012.2
2018-May-16 08:11N 36°34' W 022°20'211.8
2018-May-16 07:58N 36°34' W 022°17'511.7
2018-May-16 07:30N 36°34' W 022°10'711.7
2018-May-16 06:55N 36°33' W 022°02'1011.8
2018-May-16 06:05N 36°33' W 021°50'2611.6
2018-May-16 03:50N 36°32' W 021°17'3711.5
2018-May-16 00:36N 36°31' W 020°31'111.2
2018-May-16 00:30N 36°31' W 020°30'42611.2
2018-May-14 10:25N 36°12' W 011°41'410.8
2018-May-14 10:00N 36°12' W 011°36'510.7
2018-May-14 09:30N 36°12' W 011°29'510.8
2018-May-14 09:00N 36°13' W 011°22'510.8
2018-May-14 08:30N 36°13' W 011°16'610.7
2018-May-14 07:58N 36°13' W 011°09'26910.7
2018-May-13 06:47N 35°58' W 005°36'3 9.7
2018-May-13 06:30N 35°58' W 005°33'5 8.8
2018-May-13 05:56N 36°00' W 005°27'4 8.7
2018-May-13 05:30N 36°03' W 005°25'5 9.1
2018-May-13 05:00N 36°08' W 005°22'0 0.4
2018-May-13 04:30N 36°08' W 005°22'0 0.1
2018-May-13 03:57N 36°08' W 005°22'0 0.0
2018-May-13 03:30N 36°08' W 005°22'0 0.0
2018-May-13 03:00N 36°08' W 005°22'0 0.0
2018-May-13 02:30N 36°08' W 005°22'0 0.1
2018-May-13 01:57N 36°08' W 005°22'0 0.0
2018-May-13 01:30N 36°08' W 005°22'0 0.1
2018-May-13 00:58N 36°08' W 005°22'0 0.0
2018-May-13 00:27N 36°08' W 005°22'0 0.2
2018-May-12 23:57N 36°08' W 005°22'0 0.2
2018-May-12 23:30N 36°08' W 005°22'0 0.0
2018-May-12 22:58N 36°08' W 005°22'0 0.0
2018-May-12 22:30N 36°08' W 005°22'0 0.4
2018-May-12 22:00N 36°08' W 005°22'0 0.1
2018-May-12 21:30N 36°08' W 005°22'0 0.1
2018-May-12 21:00N 36°08' W 005°22'0 0.1
2018-May-12 20:30N 36°08' W 005°22'0 0.1
2018-May-12 19:32N 36°08' W 005°22'0 0.4
2018-May-12 19:30N 36°08' W 005°22'1 1.3
2018-May-12 19:00N 36°07' W 005°22'3 4.3
2018-May-12 18:16N 36°05' W 005°19'2 5.9
2018-May-12 18:00N 36°05' W 005°17'3 5.8
2018-May-12 17:29N 36°06' W 005°13'5 9.7
2018-May-12 16:58N 36°08' W 005°08'4 8.1
2018-May-12 16:30N 36°10' W 005°04'  
Track history (hours):
 
Tides and Currents Weather Stations Pressure Air Temp Water Temp Dewpoint Dewpoint Depression Visibility Wind Speed Wind Dir Waves Ship Positions

Swan River

Last reported at 2018-May-17 12:40 UTC. Time now 2018-May-22 19:53 UTC.
Position N 36°32' W 029°21'.

Length 190 m; draft 11.2 m.

Type: Cargo ship. MMSI: 477220600.

Date/timePositionNaut miles runAvg speedWind from/ knotsBaromVisibWave heightAir tempDewpointWater temp
2018-May-17 12:40N 36°32' W 029°21'1411.8
2018-May-17 11:30N 36°33' W 029°04'3011.8
2018-May-17 08:56N 36°35' W 028°27'2011.8
2018-May-17 07:16N 36°37' W 028°02'511.6
2018-May-17 06:49N 36°37' W 027°56'411.8
2018-May-17 06:26N 36°37' W 027°50'511.8
2018-May-17 06:00N 36°38' W 027°44'612.2
2018-May-17 05:30N 36°38' W 027°36'711.8
2018-May-17 04:55N 36°39' W 027°28'511.8
2018-May-17 04:30N 36°39' W 027°21'611.7
2018-May-17 04:00N 36°39' W 027°14'611.5
2018-May-17 03:28N 36°40' W 027°07'611.6
2018-May-17 02:58N 36°40' W 026°59'511.6
2018-May-17 02:30N 36°41' W 026°53'611.7
2018-May-17 02:00N 36°41' W 026°45'911.8
2018-May-17 01:14N 36°42' W 026°34'311.6
2018-May-17 00:59N 36°42' W 026°31'611.9
2018-May-17 00:28N 36°42' W 026°23'511.5
2018-May-17 00:00N 36°42' W 026°16'611.6
2018-May-16 23:30N 36°42' W 026°09'611.8
2018-May-16 23:00N 36°41' W 026°02'611.7
2018-May-16 22:30N 36°41' W 025°55'611.6
2018-May-16 22:00N 36°41' W 025°47'611.6
2018-May-16 21:30N 36°41' W 025°40'611.7
2018-May-16 21:00N 36°41' W 025°33'611.9
2018-May-16 20:30N 36°40' W 025°25'612.2
2018-May-16 20:00N 36°40' W 025°18'612.1
2018-May-16 19:30N 36°40' W 025°10'612.0
2018-May-16 19:00N 36°40' W 025°03'612.0
2018-May-16 18:30N 36°39' W 024°55'611.9
2018-May-16 18:00N 36°39' W 024°48'612.0
2018-May-16 17:30N 36°39' W 024°40'611.8
2018-May-16 17:00N 36°39' W 024°33'612.0
2018-May-16 16:30N 36°38' W 024°26'612.0
2018-May-16 16:00N 36°38' W 024°18'612.0
2018-May-16 15:30N 36°38' W 024°11'612.1
2018-May-16 15:00N 36°38' W 024°03'611.9
2018-May-16 14:30N 36°37' W 023°56'612.0
2018-May-16 14:00N 36°37' W 023°48'611.8
2018-May-16 13:30N 36°37' W 023°41'711.8
2018-May-16 12:56N 36°37' W 023°33'811.9
2018-May-16 12:17N 36°36' W 023°23'5012.2
2018-May-16 08:11N 36°34' W 022°20'211.8
2018-May-16 07:58N 36°34' W 022°17'511.7
2018-May-16 07:30N 36°34' W 022°10'711.7
2018-May-16 06:55N 36°33' W 022°02'1011.8
2018-May-16 06:05N 36°33' W 021°50'2611.6
2018-May-16 03:50N 36°32' W 021°17'3711.5
2018-May-16 00:36N 36°31' W 020°31'111.2
2018-May-16 00:30N 36°31' W 020°30'42611.2
2018-May-14 10:25N 36°12' W 011°41'410.8
2018-May-14 10:00N 36°12' W 011°36'510.7
2018-May-14 09:30N 36°12' W 011°29'510.8
2018-May-14 09:00N 36°13' W 011°22'510.8
2018-May-14 08:30N 36°13' W 011°16'610.7
2018-May-14 07:58N 36°13' W 011°09'26910.7
2018-May-13 06:47N 35°58' W 005°36'3 9.7
2018-May-13 06:30N 35°58' W 005°33'5 8.8
2018-May-13 05:56N 36°00' W 005°27'4 8.7
2018-May-13 05:30N 36°03' W 005°25'5 9.1
2018-May-13 05:00N 36°08' W 005°22'0 0.4
2018-May-13 04:30N 36°08' W 005°22'0 0.1
2018-May-13 03:57N 36°08' W 005°22'0 0.0
2018-May-13 03:30N 36°08' W 005°22'0 0.0
2018-May-13 03:00N 36°08' W 005°22'0 0.0
2018-May-13 02:30N 36°08' W 005°22'0 0.1
2018-May-13 01:57N 36°08' W 005°22'0 0.0
2018-May-13 01:30N 36°08' W 005°22'0 0.1
2018-May-13 00:58N 36°08' W 005°22'0 0.0
2018-May-13 00:27N 36°08' W 005°22'0 0.2
2018-May-12 23:57N 36°08' W 005°22'0 0.2
2018-May-12 23:30N 36°08' W 005°22'0 0.0
2018-May-12 22:58N 36°08' W 005°22'0 0.0
2018-May-12 22:30N 36°08' W 005°22'0 0.4
2018-May-12 22:00N 36°08' W 005°22'0 0.1
2018-May-12 21:30N 36°08' W 005°22'0 0.1
2018-May-12 21:00N 36°08' W 005°22'0 0.1
2018-May-12 20:30N 36°08' W 005°22'0 0.1
2018-May-12 19:32N 36°08' W 005°22'0 0.4
2018-May-12 19:30N 36°08' W 005°22'1 1.3
2018-May-12 19:00N 36°07' W 005°22'3 4.3
2018-May-12 18:16N 36°05' W 005°19'2 5.9
2018-May-12 18:00N 36°05' W 005°17'3 5.8
2018-May-12 17:29N 36°06' W 005°13'5 9.7
2018-May-12 16:58N 36°08' W 005°08'4 8.1
2018-May-12 16:30N 36°10' W 005°04'  

Dump ship's entire track history